sensor_id;sensor_type;location;lat;lon;timestamp;P1;durP1;ratioP1;P2;durP2;ratioP2
51491;SDS011;37569;50.548;8.778;2022-10-26T00:01:03;15.2;;;8;;
51491;SDS011;37569;50.548;8.778;2022-10-26T00:06:01;12.6;;;7;;
51491;SDS011;37569;50.548;8.778;2022-10-26T00:10:57;14.2;;;7.1;;
51491;SDS011;37569;50.548;8.778;2022-10-26T00:15:57;13.7;;;7;;
51491;SDS011;37569;50.548;8.778;2022-10-26T00:21:01;12.2;;;6.6;;
51491;SDS011;37569;50.548;8.778;2022-10-26T00:25:58;14.1;;;7.2;;
51491;SDS011;37569;50.548;8.778;2022-10-26T00:30:59;16.8;;;7.3;;
51491;SDS011;37569;50.548;8.778;2022-10-26T00:35:58;13.9;;;7.1;;
51491;SDS011;37569;50.548;8.778;2022-10-26T00:40:59;13.1;;;6.5;;
51491;SDS011;37569;50.548;8.778;2022-10-26T00:45:59;12.6;;;6.7;;
51491;SDS011;37569;50.548;8.778;2022-10-26T00:51:00;15.2;;;7.1;;
51491;SDS011;37569;50.548;8.778;2022-10-26T00:56:00;17;;;7;;
51491;SDS011;37569;50.548;8.778;2022-10-26T01:01:00;13.5;;;7.4;;
51491;SDS011;37569;50.548;8.778;2022-10-26T01:06:01;11.9;;;7.5;;
51491;SDS011;37569;50.548;8.778;2022-10-26T01:11:01;15.4;;;6.8;;
51491;SDS011;37569;50.548;8.778;2022-10-26T01:16:05;11.1;;;6.5;;
51491;SDS011;37569;50.548;8.778;2022-10-26T01:22:06;12.6;;;6.6;;
51491;SDS011;37569;50.548;8.778;2022-10-26T01:26:15;13.4;;;6.6;;
51491;SDS011;37569;50.548;8.778;2022-10-26T01:31:03;11;;;6.8;;
51491;SDS011;37569;50.548;8.778;2022-10-26T01:36:06;11.1;;;6.5;;
51491;SDS011;37569;50.548;8.778;2022-10-26T01:41:04;13.4;;;6.4;;
51491;SDS011;37569;50.548;8.778;2022-10-26T01:46:04;14.2;;;9.4;;
51491;SDS011;37569;50.548;8.778;2022-10-26T01:51:04;15.3;;;7.1;;
51491;SDS011;37569;50.548;8.778;2022-10-26T01:56:08;13;;;6.3;;
51491;SDS011;37569;50.548;8.778;2022-10-26T02:01:07;12.2;;;6.6;;
51491;SDS011;37569;50.548;8.778;2022-10-26T02:06:06;12.2;;;6.6;;
51491;SDS011;37569;50.548;8.778;2022-10-26T02:11:08;13;;;7.3;;
51491;SDS011;37569;50.548;8.778;2022-10-26T02:16:07;17.2;;;10.8;;
51491;SDS011;37569;50.548;8.778;2022-10-26T02:21:08;10.9;;;6.8;;
51491;SDS011;37569;50.548;8.778;2022-10-26T02:26:07;10.9;;;7;;
51491;SDS011;37569;50.548;8.778;2022-10-26T02:31:07;11.6;;;6.1;;
51491;SDS011;37569;50.548;8.778;2022-10-26T02:36:08;10.3;;;6.7;;
51491;SDS011;37569;50.548;8.778;2022-10-26T02:41:08;11.6;;;5.8;;
51491;SDS011;37569;50.548;8.778;2022-10-26T02:46:09;9.8;;;6.6;;
51491;SDS011;37569;50.548;8.778;2022-10-26T02:51:10;10.1;;;5.8;;
51491;SDS011;37569;50.548;8.778;2022-10-26T02:56:11;11.3;;;5.7;;
51491;SDS011;37569;50.548;8.778;2022-10-26T03:01:10;9.1;;;5.5;;
51491;SDS011;37569;50.548;8.778;2022-10-26T03:06:10;9.8;;;5.7;;
51491;SDS011;37569;50.548;8.778;2022-10-26T03:11:10;10.9;;;5.9;;
51491;SDS011;37569;50.548;8.778;2022-10-26T03:16:11;11;;;5.6;;
51491;SDS011;37569;50.548;8.778;2022-10-26T03:21:11;15.2;;;6.8;;
51491;SDS011;37569;50.548;8.778;2022-10-26T03:26:11;15.5;;;6.3;;
51491;SDS011;37569;50.548;8.778;2022-10-26T03:31:12;17.5;;;8.3;;
51491;SDS011;37569;50.548;8.778;2022-10-26T03:36:12;15.9;;;7.7;;
51491;SDS011;37569;50.548;8.778;2022-10-26T03:41:13;12.9;;;6.6;;
51491;SDS011;37569;50.548;8.778;2022-10-26T03:46:13;16.4;;;10.5;;
51491;SDS011;37569;50.548;8.778;2022-10-26T03:51:13;11.4;;;6.5;;
51491;SDS011;37569;50.548;8.778;2022-10-26T03:56:14;10.4;;;5.6;;
51491;SDS011;37569;50.548;8.778;2022-10-26T04:01:14;13.6;;;5.8;;
51491;SDS011;37569;50.548;8.778;2022-10-26T04:06:15;13.3;;;5.2;;
51491;SDS011;37569;50.548;8.778;2022-10-26T04:11:15;11.7;;;5.4;;
51491;SDS011;37569;50.548;8.778;2022-10-26T04:16:16;8.6;;;5.3;;
51491;SDS011;37569;50.548;8.778;2022-10-26T04:21:16;12.4;;;5.5;;
51491;SDS011;37569;50.548;8.778;2022-10-26T04:26:16;10.3;;;6;;
51491;SDS011;37569;50.548;8.778;2022-10-26T04:31:17;11;;;5.7;;
51491;SDS011;37569;50.548;8.778;2022-10-26T04:36:17;11.6;;;6.5;;
51491;SDS011;37569;50.548;8.778;2022-10-26T04:41:18;13.2;;;6.7;;
51491;SDS011;37569;50.548;8.778;2022-10-26T04:46:18;12.6;;;5.8;;
51491;SDS011;37569;50.548;8.778;2022-10-26T04:51:18;12.2;;;5.8;;
51491;SDS011;37569;50.548;8.778;2022-10-26T04:56:19;10.6;;;5.6;;
51491;SDS011;37569;50.548;8.778;2022-10-26T05:01:19;10.1;;;5.2;;
51491;SDS011;37569;50.548;8.778;2022-10-26T05:06:20;8.5;;;5.1;;
51491;SDS011;37569;50.548;8.778;2022-10-26T05:11:20;10.8;;;5.8;;
51491;SDS011;37569;50.548;8.778;2022-10-26T05:16:21;11.8;;;5.6;;
51491;SDS011;37569;50.548;8.778;2022-10-26T05:21:21;18.2;;;13.9;;
51491;SDS011;37569;50.548;8.778;2022-10-26T05:26:22;12.8;;;5.7;;
51491;SDS011;37569;50.548;8.778;2022-10-26T05:31:22;12.6;;;5.3;;
51491;SDS011;37569;50.548;8.778;2022-10-26T05:36:22;11.4;;;5.4;;
51491;SDS011;37569;50.548;8.778;2022-10-26T05:41:23;10.1;;;5.4;;
51491;SDS011;37569;50.548;8.778;2022-10-26T05:46:23;11.1;;;5.1;;
51491;SDS011;37569;50.548;8.778;2022-10-26T05:51:24;9.9;;;4.7;;
51491;SDS011;37569;50.548;8.778;2022-10-26T05:56:31;11.8;;;5.6;;
51491;SDS011;37569;50.548;8.778;2022-10-26T06:01:26;10;;;5.1;;
51491;SDS011;37569;50.548;8.778;2022-10-26T06:06:25;10;;;5.5;;
51491;SDS011;37569;50.548;8.778;2022-10-26T06:11:25;14.9;;;6.3;;
51491;SDS011;37569;50.548;8.778;2022-10-26T06:16:29;11.9;;;4.7;;
51491;SDS011;37569;50.548;8.778;2022-10-26T06:21:30;9.4;;;4.6;;
51491;SDS011;37569;50.548;8.778;2022-10-26T06:26:30;10.7;;;4.7;;
51491;SDS011;37569;50.548;8.778;2022-10-26T06:31:27;10.5;;;4.5;;
51491;SDS011;37569;50.548;8.778;2022-10-26T06:36:28;10.2;;;4.7;;
51491;SDS011;37569;50.548;8.778;2022-10-26T06:41:29;7.8;;;4.6;;
51491;SDS011;37569;50.548;8.778;2022-10-26T06:46:31;10.5;;;4.9;;
51491;SDS011;37569;50.548;8.778;2022-10-26T06:51:29;10.4;;;5.3;;
51491;SDS011;37569;50.548;8.778;2022-10-26T06:56:29;10.1;;;4.9;;
51491;SDS011;37569;50.548;8.778;2022-10-26T07:01:29;14.2;;;5.9;;
51491;SDS011;37569;50.548;8.778;2022-10-26T07:06:30;10.3;;;5.9;;
51491;SDS011;37569;50.548;8.778;2022-10-26T07:11:30;10.2;;;5.4;;
51491;SDS011;37569;50.548;8.778;2022-10-26T07:16:31;10.4;;;4.9;;
51491;SDS011;37569;50.548;8.778;2022-10-26T07:21:31;9.4;;;4.3;;
51491;SDS011;37569;50.548;8.778;2022-10-26T07:26:32;9;;;4.4;;
51491;SDS011;37569;50.548;8.778;2022-10-26T07:31:32;8.4;;;3.7;;
51491;SDS011;37569;50.548;8.778;2022-10-26T07:36:32;7.7;;;3.9;;
51491;SDS011;37569;50.548;8.778;2022-10-26T07:41:33;6.4;;;3.3;;
51491;SDS011;37569;50.548;8.778;2022-10-26T07:46:33;7.4;;;3.5;;
51491;SDS011;37569;50.548;8.778;2022-10-26T07:51:34;6;;;3.4;;
51491;SDS011;37569;50.548;8.778;2022-10-26T07:56:34;6.3;;;3.1;;
51491;SDS011;37569;50.548;8.778;2022-10-26T08:01:35;6.2;;;3.2;;
51491;SDS011;37569;50.548;8.778;2022-10-26T08:06:35;7.6;;;3.2;;
51491;SDS011;37569;50.548;8.778;2022-10-26T08:11:36;6.5;;;2.9;;
51491;SDS011;37569;50.548;8.778;2022-10-26T08:16:36;6.2;;;2.9;;
51491;SDS011;37569;50.548;8.778;2022-10-26T08:21:37;7.3;;;2.7;;
51491;SDS011;37569;50.548;8.778;2022-10-26T08:26:37;6.2;;;2.6;;
51491;SDS011;37569;50.548;8.778;2022-10-26T08:31:38;8.5;;;2.9;;
51491;SDS011;37569;50.548;8.778;2022-10-26T08:36:38;7.1;;;3.2;;
51491;SDS011;37569;50.548;8.778;2022-10-26T08:41:40;7.3;;;3.1;;
51491;SDS011;37569;50.548;8.778;2022-10-26T08:46:40;5.3;;;3.1;;
51491;SDS011;37569;50.548;8.778;2022-10-26T08:51:40;6.9;;;3.6;;
51491;SDS011;37569;50.548;8.778;2022-10-26T08:56:41;4.7;;;3.3;;
51491;SDS011;37569;50.548;8.778;2022-10-26T09:01:41;5.7;;;3.3;;
51491;SDS011;37569;50.548;8.778;2022-10-26T09:06:44;7.3;;;3.4;;
51491;SDS011;37569;50.548;8.778;2022-10-26T09:11:46;7.3;;;3.6;;
51491;SDS011;37569;50.548;8.778;2022-10-26T09:16:45;5.4;;;3.2;;
51491;SDS011;37569;50.548;8.778;2022-10-26T09:21:46;7.7;;;3.3;;
51491;SDS011;37569;50.548;8.778;2022-10-26T09:26:49;6.4;;;3.4;;
51491;SDS011;37569;50.548;8.778;2022-10-26T09:31:46;6.7;;;3.6;;
51491;SDS011;37569;50.548;8.778;2022-10-26T09:36:45;8.6;;;3.7;;
51491;SDS011;37569;50.548;8.778;2022-10-26T09:41:46;8.3;;;3.4;;
51491;SDS011;37569;50.548;8.778;2022-10-26T09:46:48;7;;;3.8;;
51491;SDS011;37569;50.548;8.778;2022-10-26T09:51:47;6.4;;;3.9;;
51491;SDS011;37569;50.548;8.778;2022-10-26T09:56:48;9.7;;;4.4;;
51491;SDS011;37569;50.548;8.778;2022-10-26T10:01:48;7.9;;;4.2;;
51491;SDS011;37569;50.548;8.778;2022-10-26T10:06:49;7.5;;;4.4;;
51491;SDS011;37569;50.548;8.778;2022-10-26T10:11:50;8.8;;;4.7;;
51491;SDS011;37569;50.548;8.778;2022-10-26T10:16:50;8.6;;;4.5;;
51491;SDS011;37569;50.548;8.778;2022-10-26T10:21:50;8.2;;;4.9;;
51491;SDS011;37569;50.548;8.778;2022-10-26T10:26:58;8.2;;;4.5;;
51491;SDS011;37569;50.548;8.778;2022-10-26T10:31:55;8.8;;;4.7;;
51491;SDS011;37569;50.548;8.778;2022-10-26T10:36:52;8.8;;;4.2;;
51491;SDS011;37569;50.548;8.778;2022-10-26T10:41:52;10.3;;;4.7;;
51491;SDS011;37569;50.548;8.778;2022-10-26T10:46:58;8;;;5;;
51491;SDS011;37569;50.548;8.778;2022-10-26T10:51:54;8.2;;;4.9;;
51491;SDS011;37569;50.548;8.778;2022-10-26T10:56:55;7.9;;;4.5;;
51491;SDS011;37569;50.548;8.778;2022-10-26T11:01:58;7.1;;;4.9;;
51491;SDS011;37569;50.548;8.778;2022-10-26T11:06:55;7.4;;;4.8;;
51491;SDS011;37569;50.548;8.778;2022-10-26T11:11:57;8;;;4.8;;
51491;SDS011;37569;50.548;8.778;2022-10-26T11:16:58;9.5;;;4.8;;
51491;SDS011;37569;50.548;8.778;2022-10-26T11:21:57;12.5;;;6.5;;
51491;SDS011;37569;50.548;8.778;2022-10-26T11:27:04;9.3;;;5.3;;
51491;SDS011;37569;50.548;8.778;2022-10-26T11:32:00;10;;;4.8;;
51491;SDS011;37569;50.548;8.778;2022-10-26T11:37:02;15;;;12.7;;
51491;SDS011;37569;50.548;8.778;2022-10-26T11:42:00;8;;;5.7;;
51491;SDS011;37569;50.548;8.778;2022-10-26T11:47:01;7.1;;;4.6;;
51491;SDS011;37569;50.548;8.778;2022-10-26T11:52:03;11.7;;;5.1;;
51491;SDS011;37569;50.548;8.778;2022-10-26T11:57:02;8.2;;;3.9;;
51491;SDS011;37569;50.548;8.778;2022-10-26T12:02:03;7.7;;;4.1;;
51491;SDS011;37569;50.548;8.778;2022-10-26T12:07:03;7.6;;;4.2;;
51491;SDS011;37569;50.548;8.778;2022-10-26T12:12:05;8.1;;;4;;
51491;SDS011;37569;50.548;8.778;2022-10-26T12:17:05;8;;;3.9;;
51491;SDS011;37569;50.548;8.778;2022-10-26T12:22:06;7.6;;;3.7;;
51491;SDS011;37569;50.548;8.778;2022-10-26T12:27:18;7.2;;;4;;
51491;SDS011;37569;50.548;8.778;2022-10-26T12:32:47;7.9;;;4.1;;
51491;SDS011;37569;50.548;8.778;2022-10-26T12:37:09;8.2;;;4;;
51491;SDS011;37569;50.548;8.778;2022-10-26T12:42:09;8.1;;;3.8;;
51491;SDS011;37569;50.548;8.778;2022-10-26T12:47:09;8.8;;;4;;
51491;SDS011;37569;50.548;8.778;2022-10-26T12:52:18;9;;;4;;
51491;SDS011;37569;50.548;8.778;2022-10-26T12:57:13;7.7;;;3.9;;
51491;SDS011;37569;50.548;8.778;2022-10-26T13:02:20;8.3;;;3.9;;
51491;SDS011;37569;50.548;8.778;2022-10-26T13:07:15;8.5;;;4;;
51491;SDS011;37569;50.548;8.778;2022-10-26T13:12:12;9.6;;;4.2;;
51491;SDS011;37569;50.548;8.778;2022-10-26T13:17:20;6.5;;;3.6;;
51491;SDS011;37569;50.548;8.778;2022-10-26T13:22:14;9.8;;;4.1;;
51491;SDS011;37569;50.548;8.778;2022-10-26T13:27:23;6.2;;;3.6;;
51491;SDS011;37569;50.548;8.778;2022-10-26T13:32:15;7.9;;;3.9;;
51491;SDS011;37569;50.548;8.778;2022-10-26T13:37:17;8;;;4.1;;
51491;SDS011;37569;50.548;8.778;2022-10-26T13:42:17;7.7;;;4.2;;
51491;SDS011;37569;50.548;8.778;2022-10-26T13:47:21;8.8;;;4.2;;
51491;SDS011;37569;50.548;8.778;2022-10-26T13:52:19;6.8;;;3.9;;
51491;SDS011;37569;50.548;8.778;2022-10-26T13:57:19;9;;;4.3;;
51491;SDS011;37569;50.548;8.778;2022-10-26T14:02:21;8.1;;;3.9;;
51491;SDS011;37569;50.548;8.778;2022-10-26T14:07:22;7.7;;;4;;
51491;SDS011;37569;50.548;8.778;2022-10-26T14:12:21;10.1;;;3.7;;
51491;SDS011;37569;50.548;8.778;2022-10-26T14:17:23;8.5;;;3.5;;
51491;SDS011;37569;50.548;8.778;2022-10-26T14:22:23;7.4;;;3.5;;
51491;SDS011;37569;50.548;8.778;2022-10-26T14:27:24;6.6;;;3.2;;
51491;SDS011;37569;50.548;8.778;2022-10-26T14:32:25;7.5;;;3.4;;
51491;SDS011;37569;50.548;8.778;2022-10-26T14:37:29;8.7;;;3.5;;
51491;SDS011;37569;50.548;8.778;2022-10-26T14:42:26;6.6;;;3.6;;
51491;SDS011;37569;50.548;8.778;2022-10-26T14:47:27;8.3;;;3.5;;
51491;SDS011;37569;50.548;8.778;2022-10-26T14:52:28;7.1;;;3.3;;
51491;SDS011;37569;50.548;8.778;2022-10-26T14:57:29;8.1;;;3.4;;
51491;SDS011;37569;50.548;8.778;2022-10-26T15:02:28;8.4;;;3.6;;
51491;SDS011;37569;50.548;8.778;2022-10-26T15:07:34;6.8;;;3.6;;
51491;SDS011;37569;50.548;8.778;2022-10-26T15:12:31;10;;;3.4;;
51491;SDS011;37569;50.548;8.778;2022-10-26T15:17:32;5.8;;;3.6;;
51491;SDS011;37569;50.548;8.778;2022-10-26T15:22:31;6.6;;;3.1;;
51491;SDS011;37569;50.548;8.778;2022-10-26T15:27:32;8.8;;;3.6;;
51491;SDS011;37569;50.548;8.778;2022-10-26T15:32:33;8.4;;;4;;
51491;SDS011;37569;50.548;8.778;2022-10-26T15:37:33;6.1;;;3.4;;
51491;SDS011;37569;50.548;8.778;2022-10-26T15:42:34;7.3;;;3.6;;
51491;SDS011;37569;50.548;8.778;2022-10-26T15:47:35;8.7;;;3.7;;
51491;SDS011;37569;50.548;8.778;2022-10-26T15:52:35;7.8;;;4.2;;
51491;SDS011;37569;50.548;8.778;2022-10-26T15:57:36;8.4;;;4.1;;
51491;SDS011;37569;50.548;8.778;2022-10-26T16:02:37;9.8;;;3.8;;
51491;SDS011;37569;50.548;8.778;2022-10-26T16:07:38;8;;;3.9;;
51491;SDS011;37569;50.548;8.778;2022-10-26T16:12:38;10.1;;;3.9;;
51491;SDS011;37569;50.548;8.778;2022-10-26T16:17:39;7.4;;;3.7;;
51491;SDS011;37569;50.548;8.778;2022-10-26T16:22:39;8.3;;;3.9;;
51491;SDS011;37569;50.548;8.778;2022-10-26T16:27:40;9.1;;;4;;
51491;SDS011;37569;50.548;8.778;2022-10-26T16:32:41;9.6;;;3.8;;
51491;SDS011;37569;50.548;8.778;2022-10-26T16:37:41;9.2;;;4.1;;
51491;SDS011;37569;50.548;8.778;2022-10-26T16:42:42;7.8;;;3.5;;
51491;SDS011;37569;50.548;8.778;2022-10-26T16:47:43;9.1;;;3.9;;
51491;SDS011;37569;50.548;8.778;2022-10-26T16:52:43;10;;;3.4;;
51491;SDS011;37569;50.548;8.778;2022-10-26T16:57:44;8.6;;;3.7;;
51491;SDS011;37569;50.548;8.778;2022-10-26T17:02:45;8.7;;;4;;
51491;SDS011;37569;50.548;8.778;2022-10-26T17:07:45;8.5;;;4.2;;
51491;SDS011;37569;50.548;8.778;2022-10-26T17:12:46;7.2;;;3.8;;
51491;SDS011;37569;50.548;8.778;2022-10-26T17:17:47;8.4;;;4;;
51491;SDS011;37569;50.548;8.778;2022-10-26T17:22:47;8.9;;;3.9;;
51491;SDS011;37569;50.548;8.778;2022-10-26T17:27:48;7.6;;;3.6;;
51491;SDS011;37569;50.548;8.778;2022-10-26T17:32:48;7.9;;;4.1;;
51491;SDS011;37569;50.548;8.778;2022-10-26T17:37:49;9.9;;;4.4;;
51491;SDS011;37569;50.548;8.778;2022-10-26T17:42:50;9.5;;;4.1;;
51491;SDS011;37569;50.548;8.778;2022-10-26T17:47:50;7.5;;;4.2;;
51491;SDS011;37569;50.548;8.778;2022-10-26T17:52:51;8.6;;;4.3;;
51491;SDS011;37569;50.548;8.778;2022-10-26T17:57:52;8.1;;;4.3;;
51491;SDS011;37569;50.548;8.778;2022-10-26T18:02:52;7.3;;;4.6;;
51491;SDS011;37569;50.548;8.778;2022-10-26T18:07:53;9.9;;;5.1;;
51491;SDS011;37569;50.548;8.778;2022-10-26T18:12:53;8.9;;;5.6;;
51491;SDS011;37569;50.548;8.778;2022-10-26T18:17:54;12.9;;;5.8;;
51491;SDS011;37569;50.548;8.778;2022-10-26T18:22:55;13.6;;;7.8;;
51491;SDS011;37569;50.548;8.778;2022-10-26T18:27:55;10.9;;;6.6;;
51491;SDS011;37569;50.548;8.778;2022-10-26T18:32:56;11.4;;;7.4;;
51491;SDS011;37569;50.548;8.778;2022-10-26T18:37:56;11.2;;;6.8;;
51491;SDS011;37569;50.548;8.778;2022-10-26T18:42:57;12.4;;;7.5;;
51491;SDS011;37569;50.548;8.778;2022-10-26T18:47:58;13.1;;;8.7;;
51491;SDS011;37569;50.548;8.778;2022-10-26T18:52:58;12.5;;;6.6;;
51491;SDS011;37569;50.548;8.778;2022-10-26T18:57:59;12.9;;;6.7;;
51491;SDS011;37569;50.548;8.778;2022-10-26T19:02:59;12.8;;;7.3;;
51491;SDS011;37569;50.548;8.778;2022-10-26T19:08:00;11.3;;;6.9;;
51491;SDS011;37569;50.548;8.778;2022-10-26T19:13:01;13.1;;;6.8;;
51491;SDS011;37569;50.548;8.778;2022-10-26T19:18:01;12.9;;;7;;
51491;SDS011;37569;50.548;8.778;2022-10-26T19:23:02;9.6;;;7;;
51491;SDS011;37569;50.548;8.778;2022-10-26T19:28:02;12.7;;;7.4;;
51491;SDS011;37569;50.548;8.778;2022-10-26T19:33:03;12.8;;;7;;
51491;SDS011;37569;50.548;8.778;2022-10-26T19:38:03;11.3;;;8.1;;
51491;SDS011;37569;50.548;8.778;2022-10-26T19:43:04;12.8;;;8.4;;
51491;SDS011;37569;50.548;8.778;2022-10-26T19:48:05;16.8;;;10.2;;
51491;SDS011;37569;50.548;8.778;2022-10-26T19:53:05;17.6;;;12.4;;
51491;SDS011;37569;50.548;8.778;2022-10-26T19:58:06;19.4;;;11.6;;
51491;SDS011;37569;50.548;8.778;2022-10-26T20:03:07;23.4;;;14.2;;
51491;SDS011;37569;50.548;8.778;2022-10-26T20:08:07;18.5;;;11.5;;
51491;SDS011;37569;50.548;8.778;2022-10-26T20:13:07;16.8;;;11.4;;
51491;SDS011;37569;50.548;8.778;2022-10-26T20:18:07;16.5;;;11.5;;
51491;SDS011;37569;50.548;8.778;2022-10-26T20:23:08;15.9;;;10.4;;
51491;SDS011;37569;50.548;8.778;2022-10-26T20:28:09;19.3;;;12.3;;
51491;SDS011;37569;50.548;8.778;2022-10-26T20:33:09;19.5;;;11.5;;
51491;SDS011;37569;50.548;8.778;2022-10-26T20:38:14;21.3;;;11.7;;
51491;SDS011;37569;50.548;8.778;2022-10-26T20:43:13;16.5;;;11.1;;
51491;SDS011;37569;50.548;8.778;2022-10-26T20:48:11;17;;;11;;
51491;SDS011;37569;50.548;8.778;2022-10-26T20:53:15;17.1;;;12;;
51491;SDS011;37569;50.548;8.778;2022-10-26T20:58:13;19.5;;;11.7;;
51491;SDS011;37569;50.548;8.778;2022-10-26T21:03:12;22.5;;;13.8;;
51491;SDS011;37569;50.548;8.778;2022-10-26T21:08:12;23.3;;;14.4;;
51491;SDS011;37569;50.548;8.778;2022-10-26T21:13:13;24.3;;;13.6;;
51491;SDS011;37569;50.548;8.778;2022-10-26T21:18:13;23;;;14.8;;
51491;SDS011;37569;50.548;8.778;2022-10-26T21:23:14;35.9;;;19.2;;
51491;SDS011;37569;50.548;8.778;2022-10-26T21:28:14;52;;;21.9;;
51491;SDS011;37569;50.548;8.778;2022-10-26T21:33:15;34.1;;;18.2;;
51491;SDS011;37569;50.548;8.778;2022-10-26T21:38:15;24.8;;;14.9;;
51491;SDS011;37569;50.548;8.778;2022-10-26T21:43:16;29.1;;;15;;
51491;SDS011;37569;50.548;8.778;2022-10-26T21:48:16;24.5;;;14.6;;
51491;SDS011;37569;50.548;8.778;2022-10-26T21:53:17;26.8;;;15.2;;
51491;SDS011;37569;50.548;8.778;2022-10-26T21:58:17;26.2;;;14.9;;
51491;SDS011;37569;50.548;8.778;2022-10-26T22:03:18;34.7;;;17.2;;
51491;SDS011;37569;50.548;8.778;2022-10-26T22:08:18;25.2;;;14.2;;
51491;SDS011;37569;50.548;8.778;2022-10-26T22:13:19;54.3;;;17.5;;
51491;SDS011;37569;50.548;8.778;2022-10-26T22:18:19;28.6;;;15.9;;
51491;SDS011;37569;50.548;8.778;2022-10-26T22:23:20;39.7;;;15.6;;
51491;SDS011;37569;50.548;8.778;2022-10-26T22:28:20;56.9;;;18;;
51491;SDS011;37569;50.548;8.778;2022-10-26T22:33:21;72.5;;;18.5;;
51491;SDS011;37569;50.548;8.778;2022-10-26T22:38:21;47.3;;;16.8;;
51491;SDS011;37569;50.548;8.778;2022-10-26T22:43:22;33;;;14.8;;
51491;SDS011;37569;50.548;8.778;2022-10-26T22:48:22;28.9;;;15.1;;
51491;SDS011;37569;50.548;8.778;2022-10-26T22:53:23;23.8;;;13.6;;
51491;SDS011;37569;50.548;8.778;2022-10-26T22:58:23;43.2;;;15.7;;
51491;SDS011;37569;50.548;8.778;2022-10-26T23:03:23;29.3;;;15.6;;
51491;SDS011;37569;50.548;8.778;2022-10-26T23:08:24;40;;;16.5;;
51491;SDS011;37569;50.548;8.778;2022-10-26T23:13:24;20.4;;;13.4;;
51491;SDS011;37569;50.548;8.778;2022-10-26T23:18:25;23.1;;;13.5;;
51491;SDS011;37569;50.548;8.778;2022-10-26T23:23:25;24.8;;;14.2;;
51491;SDS011;37569;50.548;8.778;2022-10-26T23:28:26;31;;;15.2;;
51491;SDS011;37569;50.548;8.778;2022-10-26T23:33:26;37.8;;;15.6;;
51491;SDS011;37569;50.548;8.778;2022-10-26T23:38:27;41.2;;;14.8;;
51491;SDS011;37569;50.548;8.778;2022-10-26T23:43:27;22.3;;;13;;
51491;SDS011;37569;50.548;8.778;2022-10-26T23:48:28;24.1;;;12.7;;
51491;SDS011;37569;50.548;8.778;2022-10-26T23:53:28;21;;;13.6;;
51491;SDS011;37569;50.548;8.778;2022-10-26T23:58:29;26.2;;;15.2;;
